Time;durP1;ratioP1;P1;durP2;ratioP2;P2;SDS_P1;SDS_P2;PMS_P1;PMS_P2;Temp;Humidity;BMP_temperature;BMP_pressure;BME280_temperature;BME280_humidity;BME280_pressure;Samples;Min_cycle;Max_cycle;Signal;HPM_P1;HPM_P2
2022/03/30 00:00:40;;;;;;;39.57;19.07;;;8.50;75.80;;;;;;4126076;28;20077;-56
2022/03/30 00:02:41;;;;;;;42.40;19.57;;;8.50;76.40;;;;;;4124464;28;20468;-55
2022/03/30 00:04:42;;;;;;;48.17;23.07;;;8.40;76.40;;;;;;4127004;28;20034;-55
2022/03/30 00:06:43;;;;;;;47.97;25.57;;;8.40;76.80;;;;;;4124998;28;20093;-54
2022/03/30 00:08:45;;;;;;;51.47;26.93;;;8.40;77.50;;;;;;4126687;28;20042;-55
2022/03/30 00:10:46;;;;;;;55.73;26.60;;;8.30;77.20;;;;;;4124607;28;20058;-52
2022/03/30 00:12:48;;;;;;;49.00;27.43;;;8.20;77.30;;;;;;4125927;28;20105;-52
2022/03/30 00:14:49;;;;;;;60.53;27.50;;;8.30;77.40;;;;;;4134298;28;20100;-53
2022/03/30 00:16:51;;;;;;;52.57;26.30;;;8.30;77.70;;;;;;4142035;28;20104;-55
2022/03/30 00:18:53;;;;;;;55.83;26.10;;;8.30;77.50;;;;;;4142173;28;20096;-55
2022/03/30 00:20:54;;;;;;;59.17;28.30;;;8.30;77.70;;;;;;4141895;28;20095;-56
2022/03/30 00:22:55;;;;;;;54.47;26.33;;;8.20;77.90;;;;;;4141702;28;20406;-57
2022/03/30 00:24:56;;;;;;;59.03;28.77;;;8.30;77.80;;;;;;4139528;28;20559;-55
2022/03/30 00:26:57;;;;;;;60.63;28.57;;;8.30;78.00;;;;;;4141719;28;20022;-54
2022/03/30 00:28:58;;;;;;;56.80;28.00;;;8.40;78.10;;;;;;4139330;28;20046;-56
2022/03/30 00:31:00;;;;;;;57.90;28.93;;;8.30;77.90;;;;;;4141999;28;20752;-55
2022/03/30 00:33:01;;;;;;;54.33;27.53;;;8.40;77.90;;;;;;4140894;28;20092;-56
2022/03/30 00:35:02;;;;;;;57.40;27.10;;;8.40;78.10;;;;;;4142182;28;20045;-55
2022/03/30 00:37:04;;;;;;;56.30;26.73;;;8.40;78.10;;;;;;4140905;28;20124;-58
2022/03/30 00:39:05;;;;;;;47.23;25.03;;;8.40;78.40;;;;;;4142335;28;20080;-59
2022/03/30 00:41:07;;;;;;;56.30;26.70;;;8.40;78.80;;;;;;4140757;28;20050;-50
2022/03/30 00:43:08;;;;;;;52.03;26.63;;;8.30;79.00;;;;;;4133037;28;20058;-54
2022/03/30 00:45:13;;;;;;;54.13;27.23;;;8.30;79.10;;;;;;4124818;28;20015;-53
2022/03/30 00:47:16;;;;;;;52.90;27.80;;;8.30;79.40;;;;;;4125821;28;20577;-62
2022/03/30 00:49:17;;;;;;;47.00;25.83;;;8.40;79.70;;;;;;4140419;28;20033;-55
2022/03/30 00:51:18;;;;;;;50.27;25.10;;;8.30;79.70;;;;;;4141229;28;20096;-56
2022/03/30 00:53:19;;;;;;;49.23;24.27;;;8.40;79.90;;;;;;4141645;28;20045;-55
2022/03/30 00:55:21;;;;;;;48.47;26.17;;;8.40;80.30;;;;;;4140943;28;20041;-56
2022/03/30 00:57:23;;;;;;;50.70;24.93;;;8.40;80.20;;;;;;4140900;28;20099;-55
2022/03/30 00:59:25;;;;;;;48.33;24.90;;;8.40;80.20;;;;;;4140435;28;20064;-56
2022/03/30 01:01:26;;;;;;;45.30;24.50;;;8.40;80.40;;;;;;4130482;28;20113;-57
2022/03/30 01:03:27;;;;;;;46.20;24.27;;;8.40;80.40;;;;;;4124446;28;20137;-57
2022/03/30 01:05:28;;;;;;;46.53;23.70;;;8.40;80.70;;;;;;4125282;28;20092;-53
2022/03/30 01:07:29;;;;;;;46.33;24.10;;;8.40;80.70;;;;;;4124631;28;20797;-49
2022/03/30 01:09:31;;;;;;;44.00;23.30;;;8.40;81.10;;;;;;4126576;28;20038;-52
2022/03/30 01:11:32;;;;;;;44.43;24.27;;;8.40;81.10;;;;;;4130575;28;20122;-53
2022/03/30 01:13:34;;;;;;;42.17;23.43;;;8.40;81.00;;;;;;4141976;28;20716;-52
2022/03/30 01:15:36;;;;;;;45.23;25.00;;;8.40;81.40;;;;;;4139980;28;20038;-56
2022/03/30 01:17:37;;;;;;;50.40;24.00;;;8.40;81.60;;;;;;4139198;28;20445;-55
2022/03/30 01:19:38;;;;;;;54.83;23.73;;;8.40;82.10;;;;;;4140357;28;20017;-56
2022/03/30 01:21:41;;;;;;;52.67;25.03;;;8.40;82.80;;;;;;4140857;28;20140;-54
2022/03/30 01:23:42;;;;;;;50.20;24.27;;;8.30;83.10;;;;;;4139817;28;20033;-52
2022/03/30 01:25:43;;;;;;;46.37;24.13;;;8.30;83.00;;;;;;4124722;28;20038;-61
2022/03/30 01:27:45;;;;;;;50.23;23.43;;;8.30;83.00;;;;;;4124627;28;20047;-51
2022/03/30 01:32:26;;;;;;;52.23;23.00;;;8.30;83.30;;;;;;4124946;28;20557;-56
2022/03/30 01:34:27;;;;;;;45.23;24.27;;;8.30;83.50;;;;;;4127035;28;20054;-62
2022/03/30 01:36:29;;;;;;;44.33;23.73;;;8.30;83.70;;;;;;4140709;28;20567;-60
2022/03/30 01:38:30;;;;;;;44.13;24.93;;;8.30;83.60;;;;;;4140269;28;20030;-52
2022/03/30 01:40:32;;;;;;;44.27;23.77;;;8.30;84.20;;;;;;4141171;28;20104;-59
2022/03/30 01:42:33;;;;;;;50.00;25.03;;;8.20;84.40;;;;;;4140214;28;20100;-59
2022/03/30 01:44:36;;;;;;;47.77;27.27;;;8.20;84.70;;;;;;4136033;28;20053;-60
2022/03/30 01:46:38;;;;;;;46.33;23.93;;;8.10;85.10;;;;;;4123604;28;20042;-56
2022/03/30 01:48:40;;;;;;;47.53;24.57;;;8.20;85.10;;;;;;4125018;28;20026;-57
2022/03/30 01:50:41;;;;;;;51.60;25.20;;;8.20;85.40;;;;;;4123318;28;20042;-53
2022/03/30 01:52:42;;;;;;;43.97;23.43;;;8.10;85.70;;;;;;4124534;28;20158;-57
2022/03/30 01:54:44;;;;;;;50.40;24.57;;;8.10;85.90;;;;;;4124726;28;20038;-65
2022/03/30 01:56:47;;;;;;;50.10;23.17;;;8.10;85.90;;;;;;4124627;28;20615;-53
2022/03/30 01:58:48;;;;;;;46.13;23.37;;;8.10;86.10;;;;;;4124061;28;20545;-51
2022/03/30 02:00:49;;;;;;;45.47;24.57;;;8.10;86.30;;;;;;4124392;28;20084;-55
2022/03/30 02:02:50;;;;;;;50.17;23.97;;;8.10;86.30;;;;;;4124028;28;20869;-55
2022/03/30 02:04:51;;;;;;;40.87;23.73;;;8.20;86.70;;;;;;4124748;28;20034;-55
2022/03/30 02:06:52;;;;;;;48.40;23.10;;;8.20;86.30;;;;;;4122772;28;20077;-53
2022/03/30 02:08:54;;;;;;;41.07;24.10;;;8.20;86.30;;;;;;4126958;28;20450;-49
2022/03/30 02:10:55;;;;;;;49.07;24.07;;;8.20;86.60;;;;;;4127691;28;20065;-54
2022/03/30 02:12:58;;;;;;;45.73;24.07;;;8.20;86.90;;;;;;4126527;28;20089;-55
2022/03/30 02:14:59;;;;;;;43.80;23.03;;;8.20;86.70;;;;;;4128109;28;20030;-55
2022/03/30 02:17:00;;;;;;;42.40;22.67;;;8.20;87.10;;;;;;4127538;28;20038;-59
2022/03/30 02:19:02;;;;;;;44.20;23.53;;;8.20;88.10;;;;;;4128692;28;20038;-55
2022/03/30 02:21:03;;;;;;;44.13;23.00;;;8.10;88.30;;;;;;4126171;28;20022;-54
2022/03/30 02:23:04;;;;;;;52.10;23.73;;;8.10;88.40;;;;;;4141180;28;20068;-52
2022/03/30 02:25:06;;;;;;;51.63;24.93;;;8.10;88.50;;;;;;4143152;28;20104;-55
2022/03/30 02:27:07;;;;;;;48.60;24.07;;;8.10;88.20;;;;;;4144060;28;20061;-52
2022/03/30 02:29:09;;;;;;;43.63;23.37;;;8.00;88.30;;;;;;4142583;28;20037;-54
2022/03/30 02:31:11;;;;;;;46.80;23.87;;;8.00;88.40;;;;;;4143168;28;20544;-55
2022/03/30 02:33:13;;;;;;;47.57;24.10;;;8.00;88.50;;;;;;4143131;28;20046;-54
2022/03/30 02:35:14;;;;;;;45.23;23.57;;;8.00;88.70;;;;;;4143450;28;20450;-60
2022/03/30 02:37:16;;;;;;;36.87;21.73;;;8.00;89.20;;;;;;4143046;28;20037;-49
2022/03/30 02:39:18;;;;;;;44.43;23.83;;;7.90;89.40;;;;;;4143657;28;20497;-64
2022/03/30 02:41:20;;;;;;;44.70;25.43;;;7.90;88.80;;;;;;4141138;28;20050;-55
2022/03/30 02:43:21;;;;;;;44.13;24.40;;;7.90;89.40;;;;;;4142475;28;20034;-59
2022/03/30 02:45:22;;;;;;;43.70;23.77;;;8.00;89.20;;;;;;4143877;28;20096;-64
2022/03/30 02:49:43;;;;;;;44.57;24.77;;;8.10;89.60;;;;;;4143797;28;20068;-55
2022/03/30 02:51:44;;;;;;;41.77;24.07;;;8.10;89.80;;;;;;4137283;28;20358;-57
2022/03/30 02:53:45;;;;;;;54.53;24.97;;;8.10;89.70;;;;;;4143492;28;20030;-61
2022/03/30 02:55:47;;;;;;;45.63;25.10;;;8.10;89.70;;;;;;4142480;28;20041;-56
2022/03/30 02:57:49;;;;;;;57.93;31.60;;;8.10;89.80;;;;;;4141687;28;20042;-60
2022/03/30 02:59:50;;;;;;;45.47;23.37;;;8.10;90.20;;;;;;4142091;28;20042;-56
2022/03/30 03:01:54;;;;;;;44.23;22.70;;;8.10;90.00;;;;;;4127262;28;20089;-55
2022/03/30 03:03:55;;;;;;;44.87;23.03;;;8.10;89.90;;;;;;4126049;28;20080;-62
2022/03/30 03:05:57;;;;;;;47.47;25.57;;;8.10;90.20;;;;;;4140222;28;20092;-56
2022/03/30 03:08:02;;;;;;;40.30;22.93;;;8.10;90.10;;;;;;4131931;28;20661;-56
2022/03/30 03:10:04;;;;;;;41.73;24.10;;;8.10;90.20;;;;;;4127682;28;20101;-55
2022/03/30 03:12:05;;;;;;;46.70;23.17;;;8.10;90.10;;;;;;4141939;28;20666;-50
2022/03/30 03:14:07;;;;;;;40.60;23.20;;;8.10;90.00;;;;;;4142905;28;20050;-57
2022/03/30 03:16:10;;;;;;;48.23;23.10;;;8.10;90.30;;;;;;4141461;28;20030;-53
2022/03/30 03:18:13;;;;;;;51.00;24.63;;;8.00;90.20;;;;;;4142217;28;20038;-58
2022/03/30 03:20:14;;;;;;;47.13;24.80;;;8.00;90.20;;;;;;4140406;28;20095;-60
2022/03/30 03:22:15;;;;;;;49.27;23.73;;;8.00;90.60;;;;;;4141430;28;20092;-59
2022/03/30 03:24:17;;;;;;;54.80;25.07;;;8.00;91.00;;;;;;4142060;28;20827;-56
2022/03/30 03:26:18;;;;;;;48.23;24.03;;;8.00;91.10;;;;;;4134223;28;20083;-54
2022/03/30 03:28:19;;;;;;;44.80;23.30;;;8.00;91.10;;;;;;4127109;28;20035;-60
2022/03/30 03:30:20;;;;;;;45.03;24.57;;;8.10;91.00;;;;;;4125630;28;20093;-55
2022/03/30 03:32:22;;;;;;;44.97;23.10;;;8.10;90.90;;;;;;4126939;28;20078;-59
2022/03/30 03:34:23;;;;;;;45.40;21.70;;;8.20;90.80;;;;;;4125112;28;20030;-59
2022/03/30 03:36:25;;;;;;;43.43;22.20;;;8.20;90.80;;;;;;4126336;28;20412;-58
2022/03/30 03:38:26;;;;;;;51.57;22.17;;;8.10;90.80;;;;;;4125530;28;20050;-55
2022/03/30 03:40:30;;;;;;;48.30;23.10;;;8.10;90.90;;;;;;4128137;28;20449;-56
2022/03/30 03:42:32;;;;;;;55.77;25.67;;;8.10;91.20;;;;;;4141056;28;20089;-63
2022/03/30 03:44:33;;;;;;;46.40;24.73;;;8.00;91.40;;;;;;4142824;28;20042;-55
2022/03/30 03:46:34;;;;;;;49.57;24.63;;;7.90;91.60;;;;;;4141957;28;20045;-61
2022/03/30 03:48:35;;;;;;;60.07;25.30;;;7.80;91.60;;;;;;4142143;28;20088;-57
2022/03/30 03:50:36;;;;;;;55.60;27.37;;;7.70;92.10;;;;;;4138280;28;20116;-57
2022/03/30 03:52:38;;;;;;;55.80;24.97;;;7.70;92.40;;;;;;4141653;28;20556;-56
2022/03/30 03:54:41;;;;;;;56.63;26.17;;;7.60;92.60;;;;;;4141536;28;20888;-60
2022/03/30 03:56:42;;;;;;;46.43;25.77;;;7.60;92.60;;;;;;4141140;28;20034;-59
2022/03/30 03:58:43;;;;;;;49.30;25.67;;;7.60;93.10;;;;;;4142629;28;20025;-61
2022/03/30 04:00:45;;;;;;;48.27;24.27;;;7.60;93.20;;;;;;4135685;28;20050;-60
2022/03/30 04:02:46;;;;;;;63.27;25.77;;;7.50;93.40;;;;;;4136149;28;20034;-61
2022/03/30 04:04:47;;;;;;;48.00;24.80;;;7.50;93.20;;;;;;4141248;28;20810;-58
2022/03/30 04:06:48;;;;;;;45.37;24.40;;;7.50;93.60;;;;;;4142252;28;20088;-60
2022/03/30 04:08:49;;;;;;;55.43;24.97;;;7.50;93.70;;;;;;4141019;28;20034;-58
2022/03/30 04:10:50;;;;;;;49.93;24.53;;;7.50;93.70;;;;;;4142441;28;20096;-57
2022/03/30 04:12:51;;;;;;;48.87;24.40;;;7.50;93.60;;;;;;4139150;28;20739;-63
2022/03/30 04:14:53;;;;;;;48.73;25.93;;;7.60;93.50;;;;;;4141992;28;20486;-59
2022/03/30 04:16:54;;;;;;;46.07;25.33;;;7.50;93.70;;;;;;4140735;28;20080;-60
2022/03/30 04:18:55;;;;;;;48.77;25.90;;;7.50;93.80;;;;;;4140479;28;20053;-57
2022/03/30 04:20:57;;;;;;;47.17;25.47;;;7.50;94.30;;;;;;4140668;28;20030;-60
2022/03/30 04:22:58;;;;;;;47.77;25.43;;;7.50;94.60;;;;;;4139696;28;20038;-60
2022/03/30 04:25:00;;;;;;;48.80;26.47;;;7.40;94.70;;;;;;4140481;28;20079;-58
2022/03/30 04:27:02;;;;;;;52.70;25.80;;;7.40;95.00;;;;;;4140228;28;20057;-55
2022/03/30 04:29:03;;;;;;;59.73;27.77;;;7.50;95.00;;;;;;4141038;28;20037;-57
2022/03/30 04:31:05;;;;;;;50.87;25.67;;;7.50;94.90;;;;;;4138021;28;20748;-57
2022/03/30 04:33:06;;;;;;;55.07;26.13;;;7.60;95.00;;;;;;4140198;28;20508;-58
2022/03/30 04:35:08;;;;;;;54.67;25.37;;;7.60;94.90;;;;;;4131962;28;20065;-53
2022/03/30 04:37:09;;;;;;;55.13;26.17;;;7.60;94.80;;;;;;4127703;28;20034;-53
2022/03/30 04:39:10;;;;;;;51.00;25.90;;;7.70;95.00;;;;;;4124194;28;20030;-57
2022/03/30 04:41:12;;;;;;;54.83;24.70;;;7.80;95.20;;;;;;4129285;28;20050;-57
2022/03/30 04:43:13;;;;;;;58.70;25.50;;;7.80;95.20;;;;;;4130867;28;20108;-54
2022/03/30 04:45:14;;;;;;;54.93;26.23;;;7.90;94.90;;;;;;4124358;28;20406;-63
2022/03/30 04:47:16;;;;;;;66.57;28.07;;;8.00;94.80;;;;;;4123988;28;20054;-57
2022/03/30 04:49:17;;;;;;;56.13;26.73;;;8.00;94.80;;;;;;4124888;28;20100;-61
2022/03/30 04:51:18;;;;;;;55.17;27.37;;;8.00;94.90;;;;;;4123595;28;20038;-54
2022/03/30 04:53:19;;;;;;;58.17;26.10;;;8.10;94.90;;;;;;4121181;28;20093;-58
2022/03/30 04:55:21;;;;;;;65.53;28.97;;;8.10;94.80;;;;;;4116435;28;20117;-55
2022/03/30 04:57:22;;;;;;;63.03;29.47;;;8.20;94.90;;;;;;4122428;28;20042;-60
2022/03/30 04:59:23;;;;;;;69.63;30.93;;;8.20;95.10;;;;;;4125244;28;20022;-55
2022/03/30 05:01:24;;;;;;;77.73;30.93;;;8.20;95.10;;;;;;4133773;28;20042;-60
2022/03/30 05:03:25;;;;;;;64.20;29.57;;;8.30;94.80;;;;;;4139234;28;20038;-57
2022/03/30 05:05:27;;;;;;;81.97;30.60;;;8.30;94.90;;;;;;4136249;28;20068;-56
2022/03/30 05:07:28;;;;;;;66.57;28.63;;;8.40;94.90;;;;;;4141136;28;20049;-57
2022/03/30 05:09:29;;;;;;;72.83;29.67;;;8.40;94.90;;;;;;4140069;28;20079;-55
2022/03/30 05:11:31;;;;;;;70.10;30.47;;;8.50;94.90;;;;;;4140556;28;20045;-56
2022/03/30 05:13:32;;;;;;;66.47;28.90;;;8.60;94.60;;;;;;4138187;28;20132;-60
2022/03/30 05:15:33;;;;;;;78.53;30.27;;;8.60;94.50;;;;;;4140716;28;20100;-59
2022/03/30 05:17:35;;;;;;;73.23;30.73;;;8.70;94.50;;;;;;4139728;28;20532;-58
2022/03/30 05:19:40;;;;;;;57.07;27.50;;;8.80;94.50;;;;;;4140643;28;20568;-59
2022/03/30 05:21:41;;;;;;;75.77;33.03;;;8.90;94.40;;;;;;4140238;28;20030;-60
2022/03/30 05:23:42;;;;;;;76.50;33.57;;;9.00;93.70;;;;;;4140119;28;20042;-58
2022/03/30 05:25:44;;;;;;;77.17;34.17;;;9.00;93.40;;;;;;4140143;28;20064;-58
2022/03/30 05:27:45;;;;;;;77.30;31.80;;;9.10;93.40;;;;;;4139526;28;20092;-56
2022/03/30 05:29:46;;;;;;;76.80;31.73;;;9.30;93.30;;;;;;4140477;28;20087;-59
2022/03/30 05:31:48;;;;;;;79.93;34.63;;;9.40;93.00;;;;;;4139093;28;20814;-61
2022/03/30 05:33:49;;;;;;;83.97;37.03;;;9.50;92.90;;;;;;4140812;28;20041;-57
2022/03/30 05:35:51;;;;;;;86.70;41.90;;;9.50;92.80;;;;;;4137832;28;20048;-58
2022/03/30 05:37:52;;;;;;;90.23;40.50;;;9.70;92.80;;;;;;4140674;28;20042;-57
2022/03/30 05:39:53;;;;;;;82.97;37.13;;;9.70;92.60;;;;;;4139644;28;20497;-57
2022/03/30 05:41:54;;;;;;;92.33;38.13;;;9.80;92.60;;;;;;4140645;28;20374;-58
2022/03/30 05:43:56;;;;;;;85.80;36.40;;;9.90;92.40;;;;;;4144265;28;20026;-55
2022/03/30 05:45:57;;;;;;;92.33;36.80;;;9.90;92.30;;;;;;4146057;28;20033;-59
2022/03/30 05:47:59;;;;;;;83.70;33.43;;;9.90;92.20;;;;;;4144266;28;20099;-53
2022/03/30 05:50:01;;;;;;;84.03;33.40;;;10.00;92.00;;;;;;4145558;28;20359;-60
2022/03/30 05:52:04;;;;;;;93.60;33.23;;;10.00;91.90;;;;;;4145363;28;20061;-59
2022/03/30 05:54:05;;;;;;;96.07;33.13;;;10.00;92.00;;;;;;4146005;28;20050;-60
2022/03/30 05:56:06;;;;;;;112.23;32.80;;;10.00;91.90;;;;;;4145550;28;20425;-57
2022/03/30 05:58:07;;;;;;;116.37;34.03;;;10.00;91.90;;;;;;4145348;28;20116;-58
2022/03/30 06:00:10;;;;;;;101.10;39.10;;;10.10;92.00;;;;;;4146295;28;20168;-57
2022/03/30 06:02:12;;;;;;;92.13;30.73;;;10.20;92.00;;;;;;4159411;28;20099;-57
2022/03/30 06:04:13;;;;;;;86.80;29.30;;;10.20;91.90;;;;;;4146079;28;20084;-61
2022/03/30 06:06:15;;;;;;;81.23;29.57;;;10.30;91.70;;;;;;4144349;28;20490;-59
2022/03/30 06:08:16;;;;;;;86.87;28.53;;;10.50;91.50;;;;;;4145949;28;20097;-55
2022/03/30 06:10:19;;;;;;;71.13;26.60;;;10.60;91.20;;;;;;4145002;28;20088;-56
2022/03/30 06:12:20;;;;;;;71.37;27.90;;;10.70;91.00;;;;;;4146249;28;20497;-56
2022/03/30 06:14:22;;;;;;;71.97;31.80;;;10.90;90.80;;;;;;4145005;28;20034;-58
2022/03/30 06:16:24;;;;;;;92.37;35.77;;;11.00;90.70;;;;;;4146256;28;20042;-59
2022/03/30 06:18:25;;;;;;;100.90;40.93;;;11.00;90.70;;;;;;4144507;28;20021;-57
2022/03/30 06:20:27;;;;;;;97.50;38.40;;;10.90;90.90;;;;;;4145935;28;20092;-60
2022/03/30 06:22:30;;;;;;;109.20;37.13;;;10.80;91.10;;;;;;4145178;28;20034;-53
2022/03/30 06:24:32;;;;;;;101.40;38.33;;;10.70;91.60;;;;;;4145240;28;20620;-57
2022/03/30 06:26:33;;;;;;;112.33;37.57;;;10.60;92.10;;;;;;4145038;28;20119;-58
2022/03/30 06:28:34;;;;;;;103.43;37.07;;;10.60;92.50;;;;;;4145324;28;20038;-58
2022/03/30 06:30:35;;;;;;;100.77;37.60;;;10.70;92.60;;;;;;4145884;28;20026;-57
2022/03/30 06:32:37;;;;;;;94.43;33.97;;;10.70;92.80;;;;;;4144404;28;20046;-60
2022/03/30 06:34:38;;;;;;;104.90;35.00;;;10.80;93.00;;;;;;4145958;28;20525;-61
2022/03/30 06:36:39;;;;;;;95.17;34.43;;;10.90;93.00;;;;;;4144623;28;20097;-57
2022/03/30 06:38:44;;;;;;;98.20;37.87;;;10.90;93.10;;;;;;4146188;28;20033;-57
2022/03/30 06:40:47;;;;;;;87.20;36.97;;;11.00;93.00;;;;;;4144312;28;20053;-60
2022/03/30 06:42:48;;;;;;;100.77;35.10;;;11.20;92.80;;;;;;4145903;28;20037;-56
2022/03/30 06:44:49;;;;;;;83.90;32.23;;;11.40;92.80;;;;;;4144733;28;20116;-56
2022/03/30 06:46:51;;;;;;;89.93;35.70;;;11.50;92.40;;;;;;4146197;28;20068;-57
2022/03/30 06:48:53;;;;;;;89.63;31.83;;;11.80;92.20;;;;;;4144823;28;20041;-58
2022/03/30 06:50:54;;;;;;;76.73;32.20;;;12.00;91.80;;;;;;4146221;28;20038;-60
2022/03/30 06:52:55;;;;;;;68.73;31.83;;;12.40;91.10;;;;;;4144762;28;20045;-57
2022/03/30 06:54:56;;;;;;;69.80;29.93;;;12.70;90.30;;;;;;4142771;28;20504;-59
2022/03/30 06:56:59;;;;;;;65.60;28.73;;;12.80;89.10;;;;;;4142351;28;20084;-63
2022/03/30 06:59:00;;;;;;;70.63;29.17;;;12.80;87.90;;;;;;4142267;28;20100;-60
2022/03/30 07:01:02;;;;;;;67.90;30.83;;;12.80;87.20;;;;;;4141949;28;20034;-57
2022/03/30 07:03:03;;;;;;;90.57;30.60;;;12.70;86.90;;;;;;4142341;28;20573;-59
2022/03/30 07:05:05;;;;;;;68.47;30.57;;;12.80;86.60;;;;;;4142803;28;20081;-60
2022/03/30 07:11:45;;;;;;;48.20;22.43;;;13.20;83.40;;;;;;4143402;28;20287;-59
2022/03/30 07:13:46;;;;;;;68.07;22.47;;;13.60;81.20;;;;;;4142711;28;20457;-62
2022/03/30 07:15:48;;;;;;;42.30;18.23;;;14.00;79.80;;;;;;4142825;28;20034;-58
2022/03/30 07:17:55;;;;;;;38.43;16.90;;;14.50;78.20;;;;;;4143487;28;20485;-56
2022/03/30 07:19:56;;;;;;;41.67;16.60;;;14.90;75.20;;;;;;4141624;28;20853;-59
2022/03/30 07:21:58;;;;;;;37.53;16.67;;;15.40;73.60;;;;;;4142691;28;20034;-62
2022/03/30 07:24:00;;;;;;;31.70;16.20;;;15.90;72.50;;;;;;4141646;28;20905;-61
2022/03/30 07:26:01;;;;;;;26.13;13.60;;;16.60;71.30;;;;;;4142619;28;20060;-61
2022/03/30 07:28:03;;;;;;;32.20;14.37;;;17.00;68.00;;;;;;4141674;28;20041;-63
2022/03/30 07:30:06;;;;;;;28.70;13.83;;;17.40;66.20;;;;;;4143088;28;20038;-60
2022/03/30 07:32:08;;;;;;;36.30;14.37;;;17.80;65.80;;;;;;4141717;28;20034;-57
2022/03/30 07:34:09;;;;;;;34.23;14.27;;;18.20;65.00;;;;;;4142625;28;20076;-58
2022/03/30 07:36:10;;;;;;;34.10;13.60;;;18.40;63.30;;;;;;4141876;28;20081;-63
2022/03/30 07:38:16;;;;;;;35.33;16.95;;;18.40;62.70;;;;;;4142039;28;20555;-59
2022/03/30 07:40:18;;;;;;;17.38;9.32;;;18.70;61.70;;;;;;4141319;28;20050;-58
2022/03/30 07:42:20;;;;;;;18.13;9.13;;;18.80;60.90;;;;;;4142028;28;20026;-58
2022/03/30 07:44:21;;;;;;;17.42;8.73;;;19.00;59.40;;;;;;4141884;28;20018;-57
2022/03/30 07:46:22;;;;;;;17.90;7.57;;;19.00;59.10;;;;;;4141448;28;20045;-57
2022/03/30 07:48:23;;;;;;;13.55;8.43;;;19.20;58.10;;;;;;4142462;28;20042;-58
2022/03/30 07:50:24;;;;;;;17.95;9.68;;;19.20;57.20;;;;;;4141082;28;20104;-53
2022/03/30 07:52:27;;;;;;;20.65;10.38;;;19.30;56.50;;;;;;4142294;28;20104;-60
2022/03/30 07:54:28;;;;;;;16.63;8.90;;;19.30;56.30;;;;;;4140668;28;20045;-59
2022/03/30 07:56:29;;;;;;;17.42;9.18;;;19.20;55.40;;;;;;4142051;28;20046;-58
2022/03/30 07:58:30;;;;;;;18.15;9.52;;;19.00;55.60;;;;;;4140954;28;20034;-61
2022/03/30 08:00:31;;;;;;;19.48;8.73;;;18.80;55.10;;;;;;4141728;28;20480;-59
2022/03/30 08:02:32;;;;;;;14.48;8.45;;;18.60;54.70;;;;;;4140656;28;20029;-59
2022/03/30 08:04:33;;;;;;;18.33;9.45;;;18.70;55.20;;;;;;4142411;28;20034;-61
2022/03/30 08:06:35;;;;;;;20.90;11.32;;;18.70;54.80;;;;;;4140849;28;20175;-58
2022/03/30 08:08:36;;;;;;;27.75;9.45;;;18.50;53.80;;;;;;4141850;28;20096;-57
2022/03/30 08:10:37;;;;;;;20.70;9.90;;;18.10;53.90;;;;;;4141349;28;20042;-58
2022/03/30 08:12:40;;;;;;;18.50;9.15;;;18.00;54.50;;;;;;4141473;28;20096;-60
2022/03/30 08:14:42;;;;;;;13.10;8.10;;;17.80;54.20;;;;;;4141274;28;20042;-63
2022/03/30 08:16:44;;;;;;;28.33;10.57;;;17.80;54.60;;;;;;4141305;28;20125;-58
2022/03/30 08:18:45;;;;;;;21.38;9.98;;;17.70;54.50;;;;;;4141524;28;20038;-63
2022/03/30 08:23:07;;;;;;;15.50;9.55;;;17.60;54.70;;;;;;4140374;28;20378;-60
2022/03/30 08:25:10;;;;;;;13.65;8.55;;;17.60;54.50;;;;;;4140089;28;20092;-63
2022/03/30 08:27:19;;;;;;;16.75;8.88;;;17.60;54.80;;;;;;4141910;28;20026;-61
2022/03/30 08:29:20;;;;;;;27.75;9.70;;;17.70;54.80;;;;;;4140451;28;20026;-58
2022/03/30 08:31:22;;;;;;;20.15;9.23;;;17.90;54.80;;;;;;4141596;28;20489;-59
2022/03/30 08:33:26;;;;;;;18.75;9.05;;;17.90;54.60;;;;;;4140226;28;20627;-59
2022/03/30 08:35:29;;;;;;;23.35;8.65;;;18.00;54.50;;;;;;4141341;28;20060;-56
2022/03/30 08:37:30;;;;;;;15.85;9.20;;;18.20;54.50;;;;;;4139972;28;20437;-58
2022/03/30 08:39:33;;;;;;;18.67;10.20;;;18.30;54.40;;;;;;4140743;28;20218;-56
2022/03/30 08:41:34;;;;;;;16.20;9.10;;;18.40;54.00;;;;;;4140287;28;20073;-62
2022/03/30 08:43:36;;;;;;;24.80;11.20;;;18.50;53.90;;;;;;4140091;28;20104;-58
2022/03/30 08:45:37;;;;;;;24.40;12.68;;;18.40;53.90;;;;;;4139464;28;20367;-59
2022/03/30 08:47:38;;;;;;;25.80;12.68;;;18.40;54.20;;;;;;4139814;28;20042;-60
2022/03/30 08:49:42;;;;;;;23.10;12.32;;;18.40;54.50;;;;;;4139727;28;20042;-59
2022/03/30 08:51:47;;;;;;;19.90;12.18;;;18.50;54.60;;;;;;4139133;28;20446;-59
2022/03/30 08:53:49;;;;;;;21.42;11.07;;;18.60;54.30;;;;;;4140079;28;20115;-60
2022/03/30 08:55:50;;;;;;;16.50;10.63;;;18.60;53.80;;;;;;4139078;28;20049;-62
2022/03/30 08:57:51;;;;;;;26.80;11.60;;;18.80;53.70;;;;;;4139991;28;20202;-58
2022/03/30 09:00:07;;;;;;;18.42;10.50;;;18.80;53.50;;;;;;4139540;28;20042;-59
2022/03/30 09:02:09;;;;;;;18.42;10.77;;;18.90;52.50;;;;;;4140122;28;20037;-60
2022/03/30 09:04:12;;;;;;;19.38;11.45;;;18.80;53.00;;;;;;4138791;28;20022;-57
2022/03/30 09:06:13;;;;;;;17.35;10.05;;;19.00;53.30;;;;;;4139178;28;20041;-58
2022/03/30 09:08:21;;;;;;;15.13;10.30;;;19.00;52.50;;;;;;4139208;28;20026;-58
2022/03/30 09:10:24;;;;;;;18.02;11.32;;;18.90;52.00;;;;;;4139784;28;20041;-61
2022/03/30 09:12:26;;;;;;;22.15;11.15;;;19.00;52.30;;;;;;4139643;28;20034;-62
2022/03/30 09:14:30;;;;;;;18.23;10.20;;;19.00;52.20;;;;;;4139406;28;20034;-60
2022/03/30 09:16:41;;;;;;;19.40;10.85;;;18.80;52.10;;;;;;4139217;28;20482;-59
2022/03/30 09:19:03;;;;;;;22.33;10.57;;;18.60;51.70;;;;;;4138856;28;20042;-56
2022/03/30 09:21:04;;;;;;;19.00;10.52;;;18.30;51.30;;;;;;4139051;28;20034;-60
2022/03/30 09:23:07;;;;;;;19.83;11.10;;;18.30;52.50;;;;;;4139419;28;20033;-57
2022/03/30 09:25:09;;;;;;;23.60;12.15;;;18.30;52.30;;;;;;4139515;28;20461;-59
2022/03/30 09:27:10;;;;;;;19.20;10.57;;;18.30;52.40;;;;;;4139805;28;20034;-58
2022/03/30 09:29:11;;;;;;;22.60;10.98;;;18.40;52.50;;;;;;4139168;28;20478;-56
2022/03/30 09:31:13;;;;;;;19.85;10.90;;;18.50;52.30;;;;;;4139460;28;20045;-60
2022/03/30 09:33:19;;;;;;;17.77;9.85;;;18.60;52.10;;;;;;4139031;28;20052;-56
2022/03/30 09:35:24;;;;;;;17.73;9.82;;;18.70;51.70;;;;;;4138651;28;20042;-61
2022/03/30 09:37:25;;;;;;;15.43;9.63;;;18.50;51.50;;;;;;4139001;28;20034;-62
2022/03/30 09:39:29;;;;;;;15.07;10.52;;;18.50;51.70;;;;;;4139189;28;20047;-61
2022/03/30 09:41:52;;;;;;;15.48;10.75;;;18.70;51.80;;;;;;4139331;28;20076;-60
2022/03/30 09:44:03;;;;;;;16.92;10.73;;;19.00;51.30;;;;;;4138974;28;20526;-57
2022/03/30 09:46:09;;;;;;;17.23;9.55;;;19.30;51.30;;;;;;4139331;28;20109;-57
2022/03/30 09:48:19;;;;;;;22.88;11.27;;;19.40;51.40;;;;;;4139117;28;20041;-58
2022/03/30 09:50:27;;;;;;;20.15;10.57;;;19.60;50.80;;;;;;4138880;28;20084;-61
2022/03/30 09:52:33;;;;;;;15.85;10.75;;;19.70;50.40;;;;;;4139803;28;20061;-59
2022/03/30 09:54:54;;;;;;;16.45;9.65;;;19.70;50.10;;;;;;4141496;28;20164;-60
2022/03/30 09:56:56;;;;;;;16.58;9.55;;;19.70;48.40;;;;;;4139246;28;20046;-58
2022/03/30 09:59:01;;;;;;;16.63;9.73;;;19.50;49.50;;;;;;4138547;28;20489;-58
2022/03/30 10:01:08;;;;;;;15.27;9.10;;;19.40;49.40;;;;;;4138672;28;20108;-59
2022/03/30 10:03:10;;;;;;;16.52;9.15;;;19.40;49.50;;;;;;4139084;28;20108;-59
2022/03/30 10:05:17;;;;;;;18.38;8.57;;;19.50;49.40;;;;;;4138706;28;20042;-60
2022/03/30 10:07:20;;;;;;;13.98;8.75;;;19.40;48.80;;;;;;4138305;28;20076;-61
2022/03/30 10:09:22;;;;;;;15.73;9.13;;;19.40;49.00;;;;;;4138827;28;20421;-59
2022/03/30 10:11:28;;;;;;;15.15;9.23;;;19.40;49.00;;;;;;4138936;28;20046;-59
2022/03/30 10:13:29;;;;;;;19.42;9.65;;;19.30;48.80;;;;;;4138483;28;20092;-60
2022/03/30 10:15:31;;;;;;;17.27;9.70;;;19.40;49.00;;;;;;4138689;28;20030;-59
2022/03/30 10:17:32;;;;;;;15.63;9.02;;;19.60;49.10;;;;;;4138681;28;20069;-61
2022/03/30 10:19:34;;;;;;;15.30;8.88;;;19.70;48.80;;;;;;4153405;28;20080;-59
2022/03/30 10:21:59;;;;;;;17.30;8.68;;;19.80;48.60;;;;;;4138195;28;20552;-59
2022/03/30 10:24:12;;;;;;;17.45;9.25;;;19.80;48.00;;;;;;4138004;28;20088;-60
2022/03/30 10:26:19;;;;;;;14.60;8.60;;;19.90;48.20;;;;;;4137526;28;20076;-59
2022/03/30 10:28:23;;;;;;;16.40;9.25;;;20.00;48.40;;;;;;4138385;28;20034;-61
2022/03/30 10:30:28;;;;;;;16.90;8.68;;;20.20;48.40;;;;;;4139579;28;20076;-59
2022/03/30 10:32:34;;;;;;;14.57;8.75;;;20.30;48.30;;;;;;4141469;28;20042;-61
2022/03/30 10:34:50;;;;;;;13.48;8.48;;;20.30;48.10;;;;;;4141489;28;20034;-64
2022/03/30 10:37:02;;;;;;;14.02;8.52;;;20.40;48.00;;;;;;4141972;28;20389;-57